createdAt,value
2022-11-24T00:02:19.756Z,1.00
2022-11-24T00:07:21.340Z,0.90
2022-11-24T00:12:22.824Z,0.80
2022-11-24T00:17:24.323Z,1.05
2022-11-24T00:22:25.747Z,1.08
2022-11-24T00:27:27.182Z,1.10
2022-11-24T00:32:29.795Z,1.02
2022-11-24T00:37:31.254Z,1.20
2022-11-24T00:42:32.710Z,1.50
2022-11-24T00:47:34.183Z,1.42
2022-11-24T00:52:35.629Z,1.00
2022-11-24T00:57:37.053Z,1.35
2022-11-24T01:02:38.607Z,0.98
2022-11-24T01:07:40.184Z,1.48
2022-11-24T01:12:41.688Z,1.20
2022-11-24T01:17:43.259Z,1.35
2022-11-24T01:22:44.782Z,1.27
2022-11-24T01:27:46.237Z,1.98
2022-11-24T01:32:47.718Z,1.50
2022-11-24T01:37:49.160Z,1.27
2022-11-24T01:42:52.587Z,1.38
2022-11-24T01:47:54.358Z,1.45
2022-11-24T01:52:56.984Z,1.50
2022-11-24T01:58:13.240Z,1.20
2022-11-24T02:03:19.439Z,1.60
2022-11-24T02:08:29.427Z,1.83
2022-11-24T02:13:34.347Z,1.52
2022-11-24T02:18:38.336Z,1.10
2022-11-24T02:23:48.000Z,1.23
2022-11-24T02:33:51.766Z,1.90
2022-11-24T02:38:53.214Z,1.77
2022-11-24T02:43:56.682Z,1.42
2022-11-24T02:48:58.151Z,1.75
2022-11-24T02:53:59.897Z,1.80
2022-11-24T02:59:01.386Z,2.50
2022-11-24T03:04:02.915Z,3.20
2022-11-24T03:09:04.937Z,1.35
2022-11-24T03:14:06.939Z,2.00
2022-11-24T03:19:08.432Z,1.67
2022-11-24T03:24:09.962Z,1.92
2022-11-24T03:29:11.447Z,1.50
2022-11-24T03:34:12.867Z,1.67
2022-11-24T03:39:14.404Z,1.75
2022-11-24T03:44:15.844Z,1.60
2022-11-24T03:49:17.525Z,1.60
2022-11-24T03:54:18.972Z,1.80
2022-11-24T03:59:20.465Z,1.40
2022-11-24T04:04:21.905Z,1.20
2022-11-24T04:09:23.352Z,1.30
2022-11-24T04:14:24.814Z,2.38
2022-11-24T04:19:26.296Z,1.90
2022-11-24T04:24:27.715Z,1.58
2022-11-24T04:29:29.200Z,1.58
2022-11-24T04:34:30.752Z,1.40
2022-11-24T04:39:32.343Z,1.40
2022-11-24T04:44:34.198Z,1.35
2022-11-24T04:49:35.839Z,1.20
2022-11-24T04:54:37.274Z,1.48
2022-11-24T04:59:38.711Z,1.33
2022-11-24T05:04:40.223Z,1.30
2022-11-24T05:09:58.463Z,1.25
2022-11-24T05:15:02.265Z,1.40
2022-11-24T05:20:05.512Z,1.63
2022-11-24T05:25:07.199Z,1.20
2022-11-24T05:30:09.434Z,1.45
2022-11-24T05:35:10.856Z,1.35
2022-11-24T05:40:12.292Z,1.38
2022-11-24T05:45:16.787Z,1.40
2022-11-24T05:50:20.285Z,1.63
2022-11-24T05:55:21.731Z,1.52
2022-11-24T06:00:23.130Z,1.98
2022-11-24T06:05:25.332Z,1.88
2022-11-24T06:10:27.069Z,2.10
2022-11-24T06:15:28.522Z,1.65
2022-11-24T06:20:32.678Z,1.65
2022-11-24T06:25:34.606Z,1.30
2022-11-24T06:30:36.074Z,1.45
2022-11-24T06:35:37.479Z,1.80
2022-11-24T06:40:38.870Z,1.50
2022-11-24T06:45:40.339Z,1.33
2022-11-24T06:50:41.816Z,1.23
2022-11-24T06:55:44.086Z,1.30
2022-11-24T07:00:45.588Z,1.30
2022-11-24T07:05:47.089Z,1.13
2022-11-24T07:10:48.561Z,1.88
2022-11-24T07:15:50.041Z,1.63
2022-11-24T07:20:51.502Z,1.30
2022-11-24T07:25:52.892Z,2.40
2022-11-24T07:30:54.343Z,1.30
2022-11-24T07:35:59.668Z,1.58
2022-11-24T07:41:06.156Z,1.63
2022-11-24T07:46:10.344Z,2.53
2022-11-24T07:51:12.077Z,1.50
2022-11-24T07:56:13.576Z,1.73
2022-11-24T08:01:18.670Z,2.05
2022-11-24T08:06:27.281Z,1.33
2022-11-24T08:11:31.836Z,1.45
2022-11-24T08:16:33.437Z,1.80
2022-11-24T08:21:34.874Z,1.90
2022-11-24T08:26:36.388Z,2.03
2022-11-24T08:31:39.063Z,1.80
2022-11-24T08:36:40.515Z,1.23
2022-11-24T08:41:41.924Z,1.40
2022-11-24T08:46:43.766Z,1.20
2022-11-24T08:51:45.233Z,1.95
2022-11-24T08:56:49.144Z,2.03
2022-11-24T09:01:50.652Z,1.55
2022-11-24T09:06:52.080Z,1.20
2022-11-24T09:11:53.532Z,1.20
2022-11-24T09:16:54.999Z,2.25
2022-11-24T09:21:56.525Z,1.50
2022-11-24T09:26:57.970Z,1.65
2022-11-24T09:32:03.606Z,1.70
2022-11-24T09:37:08.050Z,1.53
2022-11-24T09:42:35.642Z,1.40
2022-11-24T09:47:58.682Z,1.92
2022-11-24T09:53:26.222Z,1.40
2022-11-24T09:58:37.294Z,1.55
2022-11-24T10:03:42.299Z,1.30
2022-11-24T10:09:02.319Z,1.08
2022-11-24T10:14:22.587Z,1.00
2022-11-24T10:19:52.823Z,1.10
2022-11-24T10:25:31.991Z,1.05
2022-11-24T10:30:33.447Z,1.00
2022-11-24T10:35:41.414Z,1.40
2022-11-24T10:40:57.032Z,1.20
2022-11-24T10:46:22.375Z,1.38
2022-11-24T10:51:34.688Z,1.13
2022-11-24T10:56:43.462Z,1.27
2022-11-24T11:01:44.959Z,1.30
2022-11-24T11:06:46.517Z,0.90
2022-11-24T11:11:48.992Z,0.95
2022-11-24T11:16:52.336Z,0.80
2022-11-24T11:22:02.298Z,1.33
2022-11-24T11:27:20.299Z,0.90
2022-11-24T11:37:49.453Z,1.45
2022-11-24T11:43:13.791Z,2.83
2022-11-24T11:48:42.421Z,1.25
2022-11-24T11:53:56.670Z,1.13
2022-11-24T11:59:16.670Z,1.92
2022-11-24T12:04:39.942Z,1.70
2022-11-24T12:09:59.661Z,1.40
2022-11-24T12:15:20.005Z,1.13
2022-11-24T12:20:37.791Z,1.13
2022-11-24T12:25:45.117Z,1.30
2022-11-24T12:31:07.294Z,1.85
2022-11-24T12:36:30.707Z,1.33
2022-11-24T12:41:42.505Z,1.25
2022-11-24T12:46:53.374Z,1.23
2022-11-24T12:52:01.428Z,1.27
2022-11-24T12:57:22.576Z,1.20
2022-11-24T13:02:42.749Z,1.00
2022-11-24T13:07:57.153Z,1.35
2022-11-24T13:13:10.171Z,1.10
2022-11-24T13:18:50.110Z,0.80
2022-11-24T13:23:59.583Z,1.35
2022-11-24T13:29:13.311Z,1.60
2022-11-24T13:34:45.430Z,2.38
2022-11-24T13:39:52.066Z,1.17
2022-11-24T13:44:58.711Z,1.08
2022-11-24T13:50:01.790Z,1.25
2022-11-24T13:55:18.101Z,2.15
2022-11-24T14:00:35.430Z,1.40
2022-11-24T14:05:39.059Z,1.20
2022-11-24T14:10:41.921Z,1.60
2022-11-24T14:15:43.487Z,1.50
2022-11-24T14:20:45.029Z,2.28
2022-11-24T14:25:50.660Z,2.05
2022-11-24T14:31:09.283Z,1.20
2022-11-24T14:36:14.890Z,1.50
2022-11-24T14:41:23.290Z,1.77
2022-11-24T14:46:24.951Z,1.50
2022-11-24T14:51:33.710Z,2.05
2022-11-24T14:56:37.475Z,1.43
2022-11-24T15:01:38.948Z,1.55
2022-11-24T15:06:42.615Z,1.52
2022-11-24T15:11:44.046Z,1.25
2022-11-24T15:16:45.701Z,1.80
2022-11-24T15:21:49.229Z,1.48
2022-11-24T15:26:58.878Z,1.92
2022-11-24T15:32:00.437Z,1.70
2022-11-24T15:37:02.214Z,2.53
2022-11-24T15:42:03.716Z,1.60
2022-11-24T15:47:05.302Z,1.92
2022-11-24T15:52:06.871Z,1.88
2022-11-24T15:57:10.637Z,1.80
2022-11-24T16:02:12.164Z,2.13
2022-11-24T16:07:14.143Z,3.28
2022-11-24T16:12:15.635Z,2.03
2022-11-24T16:17:17.103Z,2.22
2022-11-24T16:22:18.527Z,2.20
2022-11-24T16:27:19.990Z,1.60
2022-11-24T16:32:21.531Z,2.80
2022-11-24T16:37:23.668Z,2.60
2022-11-24T16:42:25.147Z,2.25
2022-11-24T16:47:26.603Z,2.33
2022-11-24T16:52:28.000Z,2.20
2022-11-24T16:57:29.471Z,2.13
2022-11-24T17:02:30.907Z,1.85
2022-11-24T17:07:32.775Z,2.00
2022-11-24T17:12:35.784Z,1.80
2022-11-24T17:17:37.629Z,2.22
2022-11-24T17:22:39.168Z,2.20
2022-11-24T17:27:40.643Z,2.53
2022-11-24T17:32:42.093Z,2.33
2022-11-24T17:37:43.571Z,2.00
2022-11-24T17:42:45.124Z,2.45
2022-11-24T17:47:46.597Z,1.95
2022-11-24T17:52:48.087Z,2.00
2022-11-24T17:57:49.500Z,1.88
2022-11-24T18:02:50.988Z,1.92
2022-11-24T18:07:52.552Z,1.92
2022-11-24T18:12:54.024Z,2.83
2022-11-24T18:17:55.631Z,2.25
2022-11-24T18:23:05.425Z,2.38
2022-11-24T18:28:08.183Z,2.45
2022-11-24T18:33:09.709Z,1.90
2022-11-24T18:38:11.121Z,4.80
2022-11-24T18:43:12.511Z,6.25
2022-11-24T18:48:14.706Z,4.25
2022-11-24T18:53:16.165Z,4.25
2022-11-24T18:58:17.600Z,5.07
2022-11-24T19:03:19.060Z,5.45
2022-11-24T19:08:20.487Z,5.05
2022-11-24T19:13:22.010Z,4.95
2022-11-24T19:18:23.412Z,5.10
2022-11-24T19:23:25.048Z,6.78
2022-11-24T19:28:26.611Z,3.95
2022-11-24T19:33:28.508Z,3.88
2022-11-24T19:38:34.558Z,4.32
2022-11-24T19:43:36.132Z,4.50
2022-11-24T19:48:42.808Z,5.47
2022-11-24T19:53:44.986Z,4.85
2022-11-24T19:58:47.953Z,6.32
2022-11-24T20:04:13.837Z,4.63
2022-11-24T20:09:16.981Z,4.57
2022-11-24T20:14:19.483Z,3.58
2022-11-24T20:19:20.993Z,4.00
2022-11-24T20:24:23.106Z,3.65
2022-11-24T20:29:25.224Z,2.75
2022-11-24T20:34:26.785Z,3.47
2022-11-24T20:39:28.357Z,5.47
2022-11-24T20:44:29.874Z,5.03
2022-11-24T20:49:31.337Z,3.58
2022-11-24T20:54:33.084Z,2.65
2022-11-24T20:59:34.918Z,2.50
2022-11-24T21:04:36.754Z,2.35
2022-11-24T21:09:38.389Z,2.55
2022-11-24T21:14:40.148Z,3.17
2022-11-24T21:19:41.807Z,3.30
2022-11-24T21:24:43.189Z,5.53
2022-11-24T21:29:44.642Z,5.45
2022-11-24T21:34:46.147Z,4.47
2022-11-24T21:39:47.789Z,3.30
2022-11-24T21:44:49.349Z,2.90
2022-11-24T21:49:50.818Z,4.18
2022-11-24T21:54:52.227Z,2.78
2022-11-24T21:59:53.692Z,2.92
2022-11-24T22:04:55.114Z,2.40
2022-11-24T22:09:56.586Z,2.90
2022-11-24T22:14:58.075Z,4.15
2022-11-24T22:19:59.522Z,4.05
2022-11-24T22:25:00.882Z,4.13
2022-11-24T22:30:02.339Z,3.05
2022-11-24T22:35:04.204Z,2.13
2022-11-24T22:40:06.352Z,2.30
2022-11-24T22:45:08.306Z,1.60
2022-11-24T22:50:10.285Z,1.70
2022-11-24T22:55:11.719Z,1.90
2022-11-24T23:00:14.258Z,1.65
2022-11-24T23:05:20.601Z,1.50
2022-11-24T23:10:22.390Z,1.95
2022-11-24T23:15:23.884Z,1.55
2022-11-24T23:20:25.317Z,1.80
2022-11-24T23:25:26.753Z,1.77
2022-11-24T23:30:28.208Z,1.60
2022-11-24T23:35:29.695Z,2.20
2022-11-24T23:40:31.184Z,1.75
2022-11-24T23:45:32.619Z,1.38
2022-11-24T23:50:35.250Z,1.77
2022-11-24T23:55:36.684Z,1.90
